FW0450 Caldas da Rainha PT current weather conditions

sailwx.info

Wind from 019 at 13 knots gusting 19

Air temperature 13.3° C
Dewpoint 12.1° C

Last reported at 2018-Apr-25 06:10 UTC.
Time now 2018-Apr-25 06:33 UTC

Location: N 39°24' W 009°08'.
View on Google Maps.

See reports from other nearby stations

  
Tides and Currents Weather Stations Pressure Air Temp Water Temp Dewpoint Dewpoint Depression Visibility Wind Speed Wind Dir Waves Ship Positions
date/time (UTC)wind fromknots sea level pressurealtimeterstation pressurevisibilityair tempwater tempwave heightnotes
2018-Apr-25 06:10 019 13 gusting 19 13.3
2018-Apr-25 06:05 015 15 gusting 20 13.3
2018-Apr-25 06:00 007 13 gusting 20 13.3
2018-Apr-25 05:55 004 11 gusting 14 13.3
2018-Apr-25 05:50 010 13 gusting 20 13.3
2018-Apr-25 05:45 007 16 gusting 20 13.3
2018-Apr-25 05:40 003 13 gusting 17 13.3
2018-Apr-25 05:35 011 13 gusting 17 13.3
2018-Apr-25 05:30 006 13 gusting 17 13.3
2018-Apr-25 05:25 004 13 gusting 16 13.3
2018-Apr-25 05:20 010 13 gusting 16 13.3
2018-Apr-25 05:15 007 13 gusting 17 13.3
2018-Apr-25 05:10 008 13 gusting 17 13.3
2018-Apr-25 05:05 006 13 gusting 17 13.3
2018-Apr-25 05:00 357 13 gusting 19 13.3
2018-Apr-25 04:55 005 14 gusting 19 13.3
2018-Apr-25 04:50 005 14 gusting 19 13.3
2018-Apr-25 04:45 004 13 gusting 17 13.3
2018-Apr-25 04:40 006 13 gusting 17 13.3
2018-Apr-25 04:35 011 12 gusting 16 13.3
2018-Apr-25 04:30 017 13 gusting 16 13.3
2018-Apr-25 04:25 014 13 gusting 17 13.3
2018-Apr-25 04:20 003 14 gusting 19 12.8
2018-Apr-25 04:15 007 15 gusting 19 13.3
2018-Apr-25 04:10 006 14 gusting 19 12.8
2018-Apr-25 04:05 005 13 gusting 14 13.3
2018-Apr-25 04:00 017 12 gusting 13 13.3
2018-Apr-25 03:55 005 13 gusting 16 13.3
2018-Apr-25 03:50 002 14 gusting 19 13.3
2018-Apr-25 03:45 017 15 gusting 21 13.3
2018-Apr-25 03:40 019 15 gusting 21 13.3
2018-Apr-25 03:35 008 14 gusting 21 13.3
2018-Apr-25 03:30 356 13 gusting 18 13.3
2018-Apr-25 03:25 351 13 gusting 18 13.3
2018-Apr-25 03:20 001 13 gusting 18 13.3
2018-Apr-25 03:15 018 14 gusting 19 13.3
2018-Apr-25 03:10 012 13 gusting 19 13.3
2018-Apr-25 03:05 006 14 gusting 19 13.3
2018-Apr-25 03:00 015 15 gusting 19 13.3
2018-Apr-25 02:55 015 14 gusting 19 13.3
2018-Apr-25 02:50 007 13 gusting 19 13.3
2018-Apr-25 02:45 002 11 gusting 15 13.3
2018-Apr-25 02:40 358 13 gusting 19 13.3
2018-Apr-25 02:35 356 13 gusting 19 13.3
2018-Apr-25 02:30 355 13 gusting 19 13.3
2018-Apr-25 02:25 004 12 gusting 14 13.3
2018-Apr-25 02:20 008 12 gusting 15 13.3
2018-Apr-25 02:15 010 12 gusting 15 13.3
2018-Apr-25 02:10 012 13 gusting 16 13.3
2018-Apr-25 02:05 005 13 gusting 16 13.3
2018-Apr-25 02:00 008 12 gusting 19 13.3
2018-Apr-25 01:55 016 10 gusting 19 13.3
2018-Apr-25 01:50 003 11 gusting 15 13.3
2018-Apr-25 01:45 350 12 gusting 15 13.3
2018-Apr-25 01:40 354 11 gusting 14 13.3
2018-Apr-25 01:35 359 10 gusting 13 13.3
2018-Apr-25 01:30 002 12 gusting 14 13.3
2018-Apr-25 01:25 358 12 gusting 14 13.3
2018-Apr-25 01:20 352 11 gusting 14 13.3
2018-Apr-25 01:15 352 12 gusting 15 13.3
2018-Apr-25 01:10 354 12 gusting 15 13.3
2018-Apr-25 01:05 359 11 gusting 15 13.3
2018-Apr-25 01:00 005 11 gusting 18 13.3
2018-Apr-25 00:55 003 11 gusting 18 13.3
2018-Apr-25 00:50 004 10 gusting 16 13.3
2018-Apr-25 00:45 002 11 gusting 16 13.3
2018-Apr-25 00:40 358 11 gusting 16 13.3
2018-Apr-25 00:35 353 12 gusting 16 13.3
2018-Apr-25 00:30 356 11 gusting 16 13.3
2018-Apr-25 00:25 001 10 gusting 12 13.3
2018-Apr-25 00:20 358 11 gusting 13 13.3
2018-Apr-25 00:15 005 11 gusting 13 13.3
2018-Apr-25 00:10 014 10 gusting 13 13.3
2018-Apr-25 00:05 006 10 gusting 13 13.3
2018-Apr-25 00:00 005 10 gusting 13 13.3
2018-Apr-24 23:55 002 10 gusting 13 13.3
2018-Apr-24 23:50 006 10 gusting 13 13.3
2018-Apr-24 23:45 012 11 gusting 16 13.3
2018-Apr-24 23:40 007 11 gusting 16 13.3
2018-Apr-24 23:35 004 10 gusting 11 13.3
2018-Apr-24 23:30 005 10 gusting 14 13.3
2018-Apr-24 23:25 355 11 gusting 14 13.3
2018-Apr-24 23:20 357 10 gusting 13 13.3
2018-Apr-24 23:15 012 11 gusting 14 13.3
2018-Apr-24 23:10 011 12 gusting 15 13.3
2018-Apr-24 23:05 003 12 gusting 15 13.3
2018-Apr-24 23:00 359 11 gusting 15 13.9
2018-Apr-24 22:55 001 10 gusting 14 13.9
2018-Apr-24 22:50 358 10 gusting 14 13.9
2018-Apr-24 22:45 007 9 gusting 14 13.9
2018-Apr-24 22:40 009 9 gusting 13 13.9
2018-Apr-24 22:35 357 10 gusting 13 13.9
2018-Apr-24 22:30 354 10 gusting 13 13.9
2018-Apr-24 22:25 005 10 gusting 13 13.9
2018-Apr-24 22:20 016 10 gusting 13 13.9
2018-Apr-24 22:15 003 11 gusting 14 13.9
2018-Apr-24 22:10 353 10 gusting 14 13.9
2018-Apr-24 22:05 358 9 gusting 13 13.9
2018-Apr-24 22:00 002 9 gusting 12 13.9
2018-Apr-24 21:55 352 9 gusting 11 13.9
2018-Apr-24 21:50 359 10 gusting 18 13.9
2018-Apr-24 21:45 009 11 gusting 18 13.9
2018-Apr-24 21:40 014 11 gusting 18 13.9
2018-Apr-24 21:35 017 10 gusting 13 13.9
2018-Apr-24 21:30 017 10 gusting 13 13.9
2018-Apr-24 21:25 011 11 gusting 15 13.9
2018-Apr-24 21:20 005 10 gusting 15 13.9
2018-Apr-24 21:15 013 9 gusting 14 13.9
2018-Apr-24 21:10 018 11 gusting 14 13.9
2018-Apr-24 21:05 020 10 gusting 14 13.9
2018-Apr-24 21:00 012 10 gusting 13 13.9
2018-Apr-24 20:55 010 10 gusting 13 13.9
2018-Apr-24 20:50 356 10 gusting 15 13.9
2018-Apr-24 20:45 347 9 gusting 15 13.9
2018-Apr-24 20:40 355 9 gusting 14 13.9
2018-Apr-24 20:35 005 9 gusting 13 13.9
2018-Apr-24 20:30 359 8 gusting 13 13.9
2018-Apr-24 20:25 346 8 gusting 11 13.9
2018-Apr-24 20:20 355 9 gusting 15 13.9
2018-Apr-24 20:15 359 11 gusting 15 13.9
2018-Apr-24 20:10 002 12 gusting 15 13.9
2018-Apr-24 20:05 356 11 gusting 14 13.9
2018-Apr-24 20:00 353 10 gusting 14 13.9
2018-Apr-24 19:55 340 11 gusting 17 13.9
2018-Apr-24 19:50 337 12 gusting 19 13.9
2018-Apr-24 19:45 340 12 gusting 19 13.9
2018-Apr-24 19:40 332 11 gusting 16 13.9
2018-Apr-24 19:35 348 10 gusting 16 13.9
2018-Apr-24 19:30 355 11 gusting 15 13.9
2018-Apr-24 19:25 339 11 gusting 15 13.9
2018-Apr-24 19:20 341 11 gusting 15 13.9
2018-Apr-24 19:15 347 10 gusting 15 13.9
2018-Apr-24 19:10 356 10 gusting 13 13.9
2018-Apr-24 19:05 353 12 gusting 16 13.9
2018-Apr-24 19:00 347 13 gusting 16 13.9
2018-Apr-24 18:55 344 12 gusting 16 14.4
2018-Apr-24 18:50 342 11 gusting 16 14.4
2018-Apr-24 18:45 351 11 gusting 16 14.4
2018-Apr-24 18:40 349 10 gusting 14 14.4
2018-Apr-24 18:35 357 10 gusting 13 14.4
2018-Apr-24 18:30 003 11 gusting 14 14.4
2018-Apr-24 18:25 359 11 gusting 14 14.4
2018-Apr-24 18:20 354 10 gusting 13 14.4
2018-Apr-24 18:15 344 11 gusting 13 14.4
2018-Apr-24 18:10 347 11 gusting 14 14.4
2018-Apr-24 18:05 003 11 gusting 15 14.4
2018-Apr-24 18:00 016 12 gusting 17 14.4
2018-Apr-24 17:55 007 13 gusting 17 14.4
2018-Apr-24 17:50 004 12 gusting 14 14.4
2018-Apr-24 17:45 005 11 gusting 13 14.4
2018-Apr-24 17:40 001 11 gusting 13 14.4
2018-Apr-24 17:35 004 11 gusting 14 14.4
2018-Apr-24 17:30 002 12 gusting 14 14.4
2018-Apr-24 17:25 003 11 gusting 16 14.4
2018-Apr-24 17:20 005 12 gusting 16 14.4
2018-Apr-24 17:15 001 12 gusting 15 14.4
2018-Apr-24 17:10 004 12 gusting 17 14.4
2018-Apr-24 17:05 357 13 gusting 17 14.4
2018-Apr-24 17:00 354 13 gusting 17 14.4
2018-Apr-24 16:55 003 13 gusting 20 14.4
2018-Apr-24 16:45 011 13 gusting 19 14.4
2018-Apr-24 16:40 004 12 gusting 19 14.4
2018-Apr-24 16:35 355 13 gusting 20 15.0
2018-Apr-24 16:30 004 14 gusting 20 15.0
2018-Apr-24 16:25 003 14 gusting 20 15.0
2018-Apr-24 16:20 357 12 gusting 15 15.0
2018-Apr-24 16:15 006 11 gusting 15 15.0
2018-Apr-24 16:10 001 13 gusting 19 15.0
2018-Apr-24 16:05 354 13 gusting 19 15.0
2018-Apr-24 16:00 347 12 gusting 18 15.0
2018-Apr-24 15:55 353 13 gusting 19 15.6
2018-Apr-24 15:50 001 13 gusting 19 15.6
2018-Apr-24 15:45 355 13 gusting 15 15.6
2018-Apr-24 15:40 353 13 gusting 15 15.6
2018-Apr-24 15:35 353 12 gusting 15 15.6
2018-Apr-24 15:30 359 12 gusting 14 15.6
2018-Apr-24 15:25 011 13 gusting 14 16.1
2018-Apr-24 15:20 006 13 gusting 14 16.1
2018-Apr-24 15:15 350 12 gusting 14 16.1
2018-Apr-24 15:10 340 11 gusting 14 16.7
2018-Apr-24 15:05 346 13 gusting 15 16.7
2018-Apr-24 15:00 334 14 gusting 18 16.7
2018-Apr-24 14:55 327 14 gusting 18 16.7
2018-Apr-24 14:50 332 14 gusting 19 16.7
2018-Apr-24 14:45 339 14 gusting 20 16.7
2018-Apr-24 14:40 340 13 gusting 20 17.2
2018-Apr-24 14:35 332 14 gusting 20 17.2
2018-Apr-24 14:30 333 12 gusting 17 17.2
2018-Apr-24 14:25 327 11 gusting 16 17.2
2018-Apr-24 14:20 336 11 gusting 15 17.2
2018-Apr-24 14:15 345 12 gusting 15 17.2
2018-Apr-24 14:10 339 12 gusting 17 17.8
2018-Apr-24 14:05 330 12 gusting 17 17.8
2018-Apr-24 14:00 326 12 gusting 17 17.8
2018-Apr-24 13:55 329 13 gusting 17 17.8
2018-Apr-24 13:50 335 11 gusting 14 17.8
2018-Apr-24 13:45 334 10 gusting 14 17.8
2018-Apr-24 13:40 342 9 gusting 13 17.8
2018-Apr-24 13:35 347 9 gusting 13 17.8
2018-Apr-24 13:30 338 9 gusting 12 17.8
2018-Apr-24 13:25 329 9 gusting 11 17.8
2018-Apr-24 13:20 328 10 gusting 13 17.8
2018-Apr-24 13:15 323 12 gusting 16 17.8
2018-Apr-24 13:10 323 12 gusting 16 17.8
2018-Apr-24 13:05 330 11 gusting 15 17.8
2018-Apr-24 13:00 342 11 gusting 14 17.8
2018-Apr-24 12:55 344 10 gusting 14 17.8
2018-Apr-24 12:50 332 10 gusting 13 17.8
2018-Apr-24 12:45 330 9 gusting 13 17.8
2018-Apr-24 12:40 327 8 gusting 13 17.8
2018-Apr-24 12:35 323 10 gusting 16 17.8
2018-Apr-24 12:30 325 10 gusting 16 17.8
2018-Apr-24 12:25 326 11 gusting 14 17.8
2018-Apr-24 12:20 331 10 gusting 13 17.8
2018-Apr-24 12:15 328 9 gusting 13 17.8
2018-Apr-24 12:10 311 8 gusting 13 17.8
2018-Apr-24 12:05 319 7 gusting 11 17.8
2018-Apr-24 12:00 334 8 gusting 11 17.8
2018-Apr-24 11:55 334 8 gusting 11 17.8
2018-Apr-24 11:50 326 8 gusting 11 17.8
2018-Apr-24 11:45 315 8 gusting 11 17.8
2018-Apr-24 11:40 320 8 gusting 13 17.8
2018-Apr-24 11:35 327 9 gusting 13 17.8
2018-Apr-24 11:30 327 8 gusting 13 17.8
2018-Apr-24 11:25 335 8 gusting 12 17.8
2018-Apr-24 11:20 346 7 gusting 9 17.8
2018-Apr-24 11:15 007 7 gusting 11 17.8
2018-Apr-24 11:10 350 9 gusting 11 17.8
2018-Apr-24 11:05 335 9 gusting 11 17.2
2018-Apr-24 11:00 342 7 gusting 11 17.8
2018-Apr-24 10:55 340 6 gusting 10 17.2
2018-Apr-24 10:50 330 6 gusting 8 17.2
2018-Apr-24 10:45 331 6 gusting 8 17.2
2018-Apr-24 10:40 332 6 gusting 9 17.2
2018-Apr-24 10:35 325 6 gusting 9 17.2
2018-Apr-24 10:30 327 8 gusting 12 17.2
2018-Apr-24 10:25 333 7 gusting 12 17.2
2018-Apr-24 10:20 355 6 gusting 9 17.2
2018-Apr-24 10:15 357 6 gusting 9 16.7
2018-Apr-24 10:10 347 6 gusting 9 16.7
2018-Apr-24 10:05 342 6 gusting 9 16.7
2018-Apr-24 10:00 339 6 gusting 9 16.7
2018-Apr-24 09:55 344 6 gusting 9 16.7
2018-Apr-24 09:50 353 6 gusting 9 16.1
2018-Apr-24 09:45 353 6 gusting 11 16.1
2018-Apr-24 09:40 359 6 gusting 11 16.1
2018-Apr-24 09:35 021 6 gusting 7 15.6
2018-Apr-24 09:30 009 6 gusting 7 15.6
2018-Apr-24 09:25 359 5 gusting 8 15.6
2018-Apr-24 09:20 003 6 gusting 8 15.6
2018-Apr-24 09:15 356 6 gusting 9 15.0
2018-Apr-24 09:10 344 6 gusting 9 15.0
2018-Apr-24 09:05 347 6 gusting 11 15.0
2018-Apr-24 09:00 344 6 gusting 11 15.0
2018-Apr-24 08:55 348 7 gusting 11 15.0
2018-Apr-24 08:50 337 6 gusting 10 15.0
2018-Apr-24 08:45 325 6 gusting 9 14.4
2018-Apr-24 08:40 344 6 gusting 8 14.4
2018-Apr-24 08:35 004 6 gusting 8 14.4
2018-Apr-24 08:30 007 6 gusting 6 14.4
2018-Apr-24 08:25 353 6 gusting 9 14.4
2018-Apr-24 08:20 346 6 gusting 9 14.4
2018-Apr-24 08:15 348 5 gusting 6 14.4
2018-Apr-24 08:10 339 5 gusting 6 14.4
2018-Apr-24 08:05 329 5 gusting 6 14.4
2018-Apr-24 08:00 336 5 gusting 6 14.4
2018-Apr-24 07:55 347 4 gusting 6 14.4
2018-Apr-24 07:50 345 4 gusting 5 14.4
2018-Apr-24 07:45 351 6 gusting 9 14.4
2018-Apr-24 07:40 006 6 gusting 9 14.4
2018-Apr-24 07:35 014 7 gusting 9 13.9
2018-Apr-24 07:30 008 6 gusting 9 13.9
2018-Apr-24 07:25 001 5 gusting 6 13.9
2018-Apr-24 07:20 004 4 gusting 6 13.9
2018-Apr-24 07:15 004 5 gusting 6 13.9
2018-Apr-24 07:10 005 4 gusting 6 13.9
2018-Apr-24 07:05 012 4 gusting 6 13.9
2018-Apr-24 07:00 015 3 gusting 6 13.9
2018-Apr-24 06:55 342 2 gusting 4 13.9
2018-Apr-24 06:50 334 3 gusting 6 13.9
2018-Apr-24 06:45 325 3 gusting 6 13.9
2018-Apr-24 06:40 330 3 gusting 5 13.9
2018-Apr-24 06:35 334 2 gusting 5 13.9
2018-Apr-24 06:30 337 1 gusting 5 13.9
2018-Apr-24 06:25 348 1 gusting 5 13.9
2018-Apr-24 06:20 343 3 gusting 5 13.9
2018-Apr-24 06:15 345 3 gusting 5 13.9
2018-Apr-24 06:10 346 4 gusting 7 13.9
2018-Apr-24 06:05 341 3 gusting 7 13.9
2018-Apr-24 06:00 346 3 gusting 6 13.9
2018-Apr-24 05:55 345 2 gusting 6 13.9
2018-Apr-24 05:50 346 2 gusting 5 13.9
2018-Apr-24 05:45 354 3 gusting 5 13.9
2018-Apr-24 05:40 350 3 gusting 6 13.9
2018-Apr-24 05:35 353 1 gusting 6 13.9
2018-Apr-24 05:30 356 3 gusting 6 13.9
2018-Apr-24 05:25 001 4 gusting 7 13.9
2018-Apr-24 05:20 006 3 gusting 7 13.9
2018-Apr-24 05:15 008 3 gusting 6 13.9
2018-Apr-24 05:10 352 3 gusting 6 13.9
2018-Apr-24 05:05 351 3 gusting 6 13.9
2018-Apr-24 05:00 001 2 gusting 6 13.9
2018-Apr-24 04:55 351 1 gusting 5 13.9
2018-Apr-24 04:50 354 1 gusting 5 13.9
2018-Apr-24 04:45 358 1 gusting 6 13.9
2018-Apr-24 04:40 357 5 gusting 8 13.9
2018-Apr-24 04:35 003 6 gusting 8 13.9
2018-Apr-24 04:30 008 6 gusting 8 13.9
2018-Apr-24 04:25 009 6 gusting 7 13.9
2018-Apr-24 04:20 015 6 gusting 7 13.9
2018-Apr-24 04:15 015 5 gusting 7 13.9
2018-Apr-24 04:10 017 6 gusting 12 13.9
2018-Apr-24 04:05 015 7 gusting 12 13.9
2018-Apr-24 04:00 008 7 gusting 12 13.9
2018-Apr-24 03:55 001 5 gusting 10 13.9
2018-Apr-24 03:50 006 4 gusting 6 13.9
2018-Apr-24 03:45 011 4 gusting 6 13.9
2018-Apr-24 03:40 014 6 gusting 11 13.9
2018-Apr-24 03:35 003 6 gusting 11 13.9
2018-Apr-24 03:30 006 7 gusting 11 13.9
2018-Apr-24 03:25 011 7 gusting 9 13.9
2018-Apr-24 03:20 001 6 gusting 9 13.9
2018-Apr-24 03:15 357 6 gusting 9 13.9
2018-Apr-24 03:10 354 6 gusting 9 13.9
2018-Apr-24 03:05 002 6 gusting 8 13.9
2018-Apr-24 03:00 008 5 gusting 8 13.9
2018-Apr-24 02:55 003 5 gusting 7 13.9
2018-Apr-24 02:50 353 6 gusting 9 13.9
2018-Apr-24 02:45 349 7 gusting 10 13.9
2018-Apr-24 02:40 348 6 gusting 10 13.9
2018-Apr-24 02:35 343 6 gusting 7 13.9
2018-Apr-24 02:30 341 4 gusting 7 13.9
2018-Apr-24 02:25 345 4 gusting 7 13.9
2018-Apr-24 02:20 344 6 gusting 7 13.9
2018-Apr-24 02:15 346 6 gusting 8 13.9
2018-Apr-24 02:10 358 6 gusting 8 13.9
2018-Apr-24 02:05 357 6 gusting 10 13.9
2018-Apr-24 02:00 353 6 gusting 10 13.9
2018-Apr-24 01:55 352 6 gusting 8 13.9
2018-Apr-24 01:50 353 6 gusting 7 13.9
2018-Apr-24 01:45 359 6 gusting 8 13.9
2018-Apr-24 01:40 355 6 gusting 10 13.9
2018-Apr-24 01:35 005 7 gusting 11 13.9
2018-Apr-24 01:30 012 7 gusting 11 13.9
2018-Apr-24 01:25 008 6 gusting 11 13.9
2018-Apr-24 01:20 357 7 gusting 11 13.9
2018-Apr-24 01:15 348 7 gusting 11 13.9
2018-Apr-24 01:10 344 7 gusting 11 13.9
2018-Apr-24 01:05 007 6 gusting 9 13.9
2018-Apr-24 01:00 010 6 gusting 9 13.9
2018-Apr-24 00:55 354 6 gusting 9 13.9
2018-Apr-24 00:50 354 6 gusting 9 13.9
2018-Apr-24 00:45 352 6 gusting 8 13.9
2018-Apr-24 00:40 357 6 gusting 8 13.9
2018-Apr-24 00:35 005 6 gusting 8 13.9
2018-Apr-24 00:30 356 6 gusting 9 13.9
2018-Apr-24 00:25 004 6 gusting 9 13.9
2018-Apr-24 00:20 016 6 gusting 8 13.9
2018-Apr-24 00:15 018 7 gusting 9 13.9
2018-Apr-24 00:10 012 7 gusting 9 14.4
2018-Apr-24 00:05 006 8 gusting 13 14.4
2018-Apr-24 00:00 003 8 gusting 13 14.4
2018-Apr-23 23:55 359 9 gusting 12 14.4
2018-Apr-23 23:50 352 8 gusting 12 14.4
2018-Apr-23 23:45 350 7 gusting 11 14.4
2018-Apr-23 23:40 355 7 gusting 11 14.4
2018-Apr-23 23:35 354 7 gusting 9 14.4
2018-Apr-23 23:30 356 7 gusting 9 14.4
2018-Apr-23 23:25 015 6 gusting 8 14.4
2018-Apr-23 23:20 013 6 gusting 8 14.4
2018-Apr-23 23:15 011 6 gusting 9 14.4
2018-Apr-23 23:10 014 6 gusting 9 14.4
2018-Apr-23 23:05 005 6 gusting 9 14.4
2018-Apr-23 23:00 015 7 gusting 9 14.4
2018-Apr-23 22:55 012 7 gusting 9 14.4
2018-Apr-23 22:50 358 8 gusting 11 14.4
2018-Apr-23 22:45 010 8 gusting 11 14.4
2018-Apr-23 22:40 019 6 gusting 9 14.4
2018-Apr-23 22:35 359 6 gusting 8 14.4
2018-Apr-23 22:30 353 6 gusting 8 14.4
2018-Apr-23 22:25 007 7 gusting 12 14.4
2018-Apr-23 22:20 008 7 gusting 12 14.4
2018-Apr-23 22:15 359 7 gusting 9 14.4
2018-Apr-23 22:10 358 8 gusting 10 14.4
2018-Apr-23 22:05 001 7 gusting 10 14.4
2018-Apr-23 22:00 007 7 gusting 10 14.4
2018-Apr-23 21:55 016 8 gusting 11 14.4
2018-Apr-23 21:50 008 8 gusting 11 14.4
2018-Apr-23 21:45 001 9 gusting 11 14.4
2018-Apr-23 21:40 007 9 gusting 11 14.4
2018-Apr-23 21:35 008 8 gusting 10 14.4
2018-Apr-23 21:30 008 8 gusting 11 14.4
2018-Apr-23 21:25 007 7 gusting 11 14.4
2018-Apr-23 21:20 353 7 gusting 9 14.4
2018-Apr-23 21:15 348 8 gusting 11 14.4
2018-Apr-23 21:10 341 9 gusting 11 14.4
2018-Apr-23 21:05 341 8 gusting 11 14.4
2018-Apr-23 21:00 340 6 gusting 9 14.4
2018-Apr-23 20:55 351 6 gusting 9 14.4
2018-Apr-23 20:50 010 6 gusting 9 14.4
2018-Apr-23 20:45 001 7 gusting 11 14.4
2018-Apr-23 20:40 004 8 gusting 11 14.4
2018-Apr-23 20:35 010 8 gusting 11 14.4
2018-Apr-23 20:30 014 7 gusting 10 14.4
2018-Apr-23 20:25 007 7 gusting 11 15.0
2018-Apr-23 20:20 335 6 gusting 11 15.0
2018-Apr-23 20:15 329 7 gusting 10 15.0
2018-Apr-23 20:10 330 8 gusting 10 15.0
2018-Apr-23 20:05 330 7 gusting 8 15.0
2018-Apr-23 20:00 329 6 gusting 9 15.0
2018-Apr-23 19:55 334 6 gusting 9 15.0
2018-Apr-23 19:50 340 6 gusting 7 15.0
2018-Apr-23 19:45 338 6 gusting 7 15.0
2018-Apr-23 19:40 341 6 gusting 7 15.0
2018-Apr-23 19:35 357 6 gusting 8 15.0
2018-Apr-23 19:30 358 6 gusting 8 15.6
2018-Apr-23 19:25 345 6 gusting 8 15.6
2018-Apr-23 19:20 347 6 gusting 8 15.6
2018-Apr-23 19:15 358 6 gusting 8 15.6
2018-Apr-23 19:10 006 6 gusting 9 15.6
2018-Apr-23 19:05 357 6 gusting 9 16.1
2018-Apr-23 19:00 359 6 gusting 8 16.1
2018-Apr-23 18:55 356 6 gusting 8 16.7
2018-Apr-23 18:50 355 6 gusting 7 16.7
2018-Apr-23 18:45 351 6 gusting 7 16.7
2018-Apr-23 18:40 355 6 gusting 9 16.7
2018-Apr-23 18:35 356 7 gusting 9 16.7
2018-Apr-23 18:30 353 7 gusting 9 16.7
2018-Apr-23 18:25 348 7 gusting 9 16.7
2018-Apr-23 18:20 345 7 gusting 9 16.7
2018-Apr-23 18:15 354 8 gusting 9 17.2
2018-Apr-23 18:10 006 8 gusting 10 17.2
2018-Apr-23 18:05 351 7 gusting 10 17.2
2018-Apr-23 18:00 339 6 gusting 9 17.2
2018-Apr-23 17:55 332 5 gusting 9 17.8
2018-Apr-23 17:50 327 5 gusting 9 17.8
2018-Apr-23 17:45 335 5 gusting 9 17.8
2018-Apr-23 17:40 343 6 gusting 8 17.8
2018-Apr-23 17:35 329 6 gusting 10 17.8
2018-Apr-23 17:30 323 6 gusting 10 17.8
2018-Apr-23 17:25 339 5 gusting 7 17.8
2018-Apr-23 17:20 356 5 gusting 7 17.8
2018-Apr-23 17:10 006 5 gusting 6 17.8
2018-Apr-23 17:05 352 5 gusting 6 17.8
2018-Apr-23 17:00 343 6 gusting 10 17.8
2018-Apr-23 16:55 354 6 gusting 10 17.8
2018-Apr-23 16:50 353 8 gusting 11 17.8
2018-Apr-23 16:45 351 9 gusting 13 17.8
2018-Apr-23 16:40 356 8 gusting 13 17.8
2018-Apr-23 16:35 352 8 gusting 11 17.8
2018-Apr-23 16:30 344 7 gusting 9 18.3
2018-Apr-23 16:25 347 7 gusting 13 18.3
2018-Apr-23 16:20 352 7 gusting 13 18.3
2018-Apr-23 16:15 349 6 gusting 13 18.3
2018-Apr-23 16:10 350 6 gusting 9 18.3
2018-Apr-23 16:05 336 6 gusting 8 18.3
2018-Apr-23 16:00 333 6 gusting 9 18.3
2018-Apr-23 15:55 325 6 gusting 9 18.3
2018-Apr-23 15:50 328 7 gusting 11 18.3
2018-Apr-23 15:45 330 7 gusting 11 18.3
2018-Apr-23 15:40 324 7 gusting 11 18.3
2018-Apr-23 15:35 321 7 gusting 10 18.3
2018-Apr-23 15:30 323 8 gusting 9 18.3
2018-Apr-23 15:25 327 8 gusting 11 18.3
2018-Apr-23 15:20 331 8 gusting 11 18.3
2018-Apr-23 15:15 337 8 gusting 9 18.3
2018-Apr-23 15:10 335 9 gusting 12 18.9
2018-Apr-23 15:05 335 9 gusting 12 18.9
2018-Apr-23 15:00 328 9 gusting 13 19.4
2018-Apr-23 14:55 326 10 gusting 13 19.4
2018-Apr-23 14:50 339 9 gusting 11 19.4
2018-Apr-23 14:45 332 9 gusting 12 20.0
2018-Apr-23 14:40 316 8 gusting 12 20.0
2018-Apr-23 14:35 322 7 gusting 12 20.6
2018-Apr-23 14:30 337 6 gusting 8 20.6
2018-Apr-23 14:25 331 6 gusting 7 20.6
2018-Apr-23 14:20 331 6 gusting 7 20.6
2018-Apr-23 14:15 335 5 gusting 6 20.6
2018-Apr-23 14:10 331 6 gusting 6 20.6
2018-Apr-23 14:05 329 4 gusting 6 20.6
2018-Apr-23 14:00 321 4 gusting 6 20.6
2018-Apr-23 13:55 312 5 gusting 6 21.1
2018-Apr-23 13:50 325 6 gusting 7 21.1
2018-Apr-23 13:45 342 6 gusting 8 21.1
2018-Apr-23 13:40 347 5 gusting 8 21.7
2018-Apr-23 13:35 001 4 gusting 6 21.7
2018-Apr-23 13:30 345 6 gusting 9 21.7
2018-Apr-23 13:25 334 6 gusting 9 22.2
2018-Apr-23 13:20 341 4 gusting 5 22.8
2018-Apr-23 13:15 345 2 gusting 5 22.8
2018-Apr-23 13:10 331 1 gusting 3 22.8
2018-Apr-23 13:05 320 1 gusting 3 22.8
2018-Apr-23 13:00 321 1 gusting 3 22.8
2018-Apr-23 12:55 335 1 gusting 5 22.8
2018-Apr-23 12:50 345 3 gusting 5 22.8
2018-Apr-23 12:45 346 3 gusting 5 22.8
2018-Apr-23 12:40 001 2 gusting 5 22.8
2018-Apr-23 12:35 023 2 gusting 5 22.8
2018-Apr-23 12:30 012 2 gusting 5 22.8
2018-Apr-23 12:25 008 4 gusting 6 22.8
2018-Apr-23 12:20 014 4 gusting 6 22.2
2018-Apr-23 12:15 015 5 gusting 6 22.2
2018-Apr-23 12:10 017 4 gusting 6 22.2
2018-Apr-23 12:05 020 3 gusting 6 22.2
2018-Apr-23 12:00 352 4 gusting 5 22.2
2018-Apr-23 11:55 350 3 gusting 5 21.7
2018-Apr-23 11:50 027 4 gusting 6 21.7
2018-Apr-23 11:45 033 3 gusting 6 21.7
2018-Apr-23 11:40 037 3 gusting 6 21.7
2018-Apr-23 11:35 037 3 gusting 8 21.7
2018-Apr-23 11:30 040 1 gusting 8 21.1
2018-Apr-23 11:25 21.1
2018-Apr-23 11:20 012 1 gusting 5 21.1
2018-Apr-23 11:15 008 3 gusting 5 20.6
2018-Apr-23 11:10 004 4 gusting 4 20.6
2018-Apr-23 11:05 001 4 gusting 5 20.6
2018-Apr-23 11:00 014 4 gusting 6 20.0
2018-Apr-23 10:55 022 3 gusting 6 20.0
2018-Apr-23 10:50 001 2 gusting 6 19.4
2018-Apr-23 10:45 323 3 gusting 5 19.4
2018-Apr-23 10:40 321 3 gusting 5 18.9
2018-Apr-23 10:35 338 3 gusting 5 18.9
2018-Apr-23 10:30 002 5 gusting 8 18.9
2018-Apr-23 10:25 006 5 gusting 8 18.3
2018-Apr-23 10:20 006 3 gusting 6 18.3
2018-Apr-23 10:15 010 0 gusting 3 18.3
2018-Apr-23 10:10 068 17.8
2018-Apr-23 10:05 068 17.8
2018-Apr-23 10:00 037 0 gusting 5 17.8
2018-Apr-23 09:55 022 2 gusting 9 17.2
2018-Apr-23 09:50 016 4 gusting 9 17.2
2018-Apr-23 09:45 015 3 gusting 9 17.2
2018-Apr-23 09:40 033 1 gusting 6 16.7
2018-Apr-23 09:35 054 0 gusting 4 16.7
2018-Apr-23 09:30 011 16.1
2018-Apr-23 09:25 345 0 gusting 3 15.6
2018-Apr-23 09:20 338 1 gusting 3 15.6
2018-Apr-23 09:15 334 1 gusting 4 15.6
2018-Apr-23 09:10 341 2 gusting 4 15.0
2018-Apr-23 09:05 343 2 gusting 3 15.0
2018-Apr-23 09:00 335 1 gusting 3 15.0
2018-Apr-23 08:55 342 0 gusting 4 14.4
2018-Apr-23 08:50 353 1 gusting 5 14.4
2018-Apr-23 08:45 332 2 gusting 5 14.4
2018-Apr-23 08:40 315 2 gusting 4 14.4
2018-Apr-23 08:35 338 0 gusting 4 14.4
2018-Apr-23 08:30 023 13.9
2018-Apr-23 08:25 023 14.4
2018-Apr-23 08:20 14.4
2018-Apr-23 08:15 14.4
2018-Apr-23 08:10 14.4
2018-Apr-23 08:05 13.9
2018-Apr-23 08:00 13.9
2018-Apr-23 07:55 13.9
2018-Apr-23 07:50 292 13.3
2018-Apr-23 07:45 292 13.3
2018-Apr-23 07:40 292 0 gusting 3 13.3
2018-Apr-23 07:35 292 0 gusting 3 13.3
2018-Apr-23 07:30 13.3
2018-Apr-23 07:25 13.3
2018-Apr-23 07:20 022 12.8
2018-Apr-23 07:15 022 12.8
2018-Apr-23 07:10 022 12.8
2018-Apr-23 07:05 022 12.8
2018-Apr-23 07:00 12.8
2018-Apr-23 06:55 068 0 gusting 5 12.8
2018-Apr-23 06:50 057 0 gusting 5 12.8
2018-Apr-23 06:45 041 0 gusting 5 12.8
2018-Apr-23 06:40 051 1 gusting 5 12.8
2018-Apr-23 06:35 022 2 gusting 5 12.8
2018-Apr-23 06:30 014 4 gusting 6 12.8
2018-Apr-23 06:25 014 4 gusting 6 12.8
2018-Apr-23 06:20 015 2 gusting 6 12.8
2018-Apr-23 06:15 011 3 gusting 6 12.2
2018-Apr-23 06:10 008 2 gusting 6 12.2
2018-Apr-23 06:05 005 0 gusting 5 12.2
2018-Apr-23 06:00 010 0 gusting 2 12.2